Аэропорт: Полярный. Удачный

ICAO: UERP

METAR:
2019-11-21 09:00:00
UERP 210900Z 27001MPS 2500 -SN BKN013 OVC100 M21/M22 Q1001 R35/490834 NOSIG RMK QFE706
METAR:
2019-11-21 08:00:00
TAF UERP 210800Z 2109/2209 VRB01MPS 4000 -SN BKN013 OVC100 TEMPO 2109/2118 1700 SN BKN007 OVC100